地図

経路データ

SID SEASON NUMBER BASIN SUBBASIN NAME ISO_TIME NATURE LAT LON WMO_WIND WMO_PRES WMO_AGENCY TRACK_TYPE DIST2LAND LANDFALL IFLAG USA_AGENCY USA_ATCF_ID USA_LAT USA_LON USA_RECORD USA_STATUS USA_WIND USA_PRES USA_SSHS USA_R34_NE USA_R34_SE USA_R34_SW USA_R34_NW USA_R50_NE USA_R50_SE USA_R50_SW USA_R50_NW USA_R64_NE USA_R64_SE USA_R64_SW USA_R64_NW USA_POCI USA_ROCI USA_RMW USA_EYE TOKYO_LAT TOKYO_LON TOKYO_GRADE TOKYO_WIND TOKYO_PRES TOKYO_R50_DIR TOKYO_R50_LONG TOKYO_R50_SHORT TOKYO_R30_DIR TOKYO_R30_LONG TOKYO_R30_SHORT TOKYO_LAND CMA_LAT CMA_LON CMA_CAT CMA_WIND CMA_PRES HKO_LAT HKO_LON HKO_CAT HKO_WIND HKO_PRES NEWDELHI_LAT NEWDELHI_LON NEWDELHI_GRADE NEWDELHI_WIND NEWDELHI_PRES NEWDELHI_CI NEWDELHI_DP NEWDELHI_POCI REUNION_LAT REUNION_LON REUNION_TYPE REUNION_WIND REUNION_PRES REUNION_TNUM REUNION_CI REUNION_RMW REUNION_R34_NE REUNION_R34_SE REUNION_R34_SW REUNION_R34_NW REUNION_R50_NE REUNION_R50_SE REUNION_R50_SW REUNION_R50_NW REUNION_R64_NE REUNION_R64_SE REUNION_R64_SW REUNION_R64_NW BOM_LAT BOM_LON BOM_TYPE BOM_WIND BOM_PRES BOM_TNUM BOM_CI BOM_RMW BOM_R34_NE BOM_R34_SE BOM_R34_SW BOM_R34_NW BOM_R50_NE BOM_R50_SE BOM_R50_SW BOM_R50_NW BOM_R64_NE BOM_R64_SE BOM_R64_SW BOM_R64_NW BOM_ROCI BOM_POCI BOM_EYE BOM_POS_METHOD BOM_PRES_METHOD NADI_LAT NADI_LON NADI_CAT NADI_WIND NADI_PRES WELLINGTON_LAT WELLINGTON_LON WELLINGTON_WIND WELLINGTON_PRES DS824_LAT DS824_LON DS824_STAGE DS824_WIND DS824_PRES TD9636_LAT TD9636_LON TD9636_STAGE TD9636_WIND TD9636_PRES TD9635_LAT TD9635_LON TD9635_WIND TD9635_PRES TD9635_ROCI NEUMANN_LAT NEUMANN_LON NEUMANN_CLASS NEUMANN_WIND NEUMANN_PRES MLC_LAT MLC_LON MLC_CLASS MLC_WIND MLC_PRES USA_GUST BOM_GUST BOM_GUST_PER REUNION_GUST REUNION_GUST_PER USA_SEAHGT USA_SEARAD_NE USA_SEARAD_SE USA_SEARAD_SW USA_SEARAD_NW STORM_SPEED STORM_DIR
1992027N05206 1992 6 EP CP EKEKA 1992-01-26 18:00:00 TS 5.20000 205.600 20 hurdat_epa main 1540 1540 O_____________ hurdat_epa CP011992 5.20000 -154.400 TD 20 -1 4 158
1992027N05206 1992 6 EP CP EKEKA 1992-01-26 21:00:00 TS 5.02001 205.673 main 1563 1563 P_____________ CP011992 5.02001 -154.327 TD 20 -1 4 167
1992027N05206 1992 6 EP CP EKEKA 1992-01-27 00:00:00 TS 4.80000 205.700 20 hurdat_epa main 1586 1586 O_____________ hurdat_epa CP011992 4.80000 -154.300 TD 20 -1 5 181
1992027N05206 1992 6 EP CP EKEKA 1992-01-27 03:00:00 TS 4.52749 205.645 main 1618 1618 P_____________ CP011992 4.52749 -154.355 TD 20 -1 5 202
1992027N05206 1992 6 EP CP EKEKA 1992-01-27 06:00:00 TS 4.30000 205.500 20 hurdat_epa main 1640 1639 O_____________ hurdat_epa CP011992 4.30000 -154.500 TD 20 -1 5 229
1992027N05206 1992 6 EP CP EKEKA 1992-01-27 09:00:00 TS 4.21250 205.280 main 1649 1647 P_____________ CP011992 4.21250 -154.720 TD 22 -1 5 259
1992027N05206 1992 6 EP CP EKEKA 1992-01-27 12:00:00 TS 4.20000 205.000 25 hurdat_epa main 1647 1646 O_____________ hurdat_epa CP011992 4.20000 -155.000 TD 25 -1 6 267
1992027N05206 1992 6 EP CP EKEKA 1992-01-27 15:00:00 TS 4.18500 204.707 main 1646 1646 P_____________ CP011992 4.18500 -155.293 TD 25 -1 6 270
1992027N05206 1992 6 EP CP EKEKA 1992-01-27 18:00:00 TS 4.20000 204.400 25 hurdat_epa main 1646 1646 O_____________ hurdat_epa CP011992 4.20000 -155.600 TD 25 -1 6 275
1992027N05206 1992 6 EP CP EKEKA 1992-01-27 21:00:00 TS 4.23499 204.100 main 1646 1635 P_____________ CP011992 4.23499 -155.900 TD 25 -1 6 279
1992027N05206 1992 6 EP CP EKEKA 1992-01-28 00:00:00 TS 4.30000 203.800 25 hurdat_epa main 1635 1625 O_____________ hurdat_epa CP011992 4.30000 -156.200 TD 25 -1 6 284
1992027N05206 1992 6 EP CP EKEKA 1992-01-28 03:00:00 TS 4.38498 203.507 main 1626 1616 P_____________ CP011992 4.38498 -156.493 TD 27 -1 7 287
1992027N05206 1992 6 EP CP EKEKA 1992-01-28 06:00:00 TS 4.50000 203.160 30 hurdat_epa main 1616 1607 O_____________ hurdat_epa CP011992 4.50000 -156.800 TD 30 -1 8 289
1992027N05206 1992 6 EP CP EKEKA 1992-01-28 09:00:00 TS 4.65672 202.726 main 1599 1590 P_____________ CP011992 4.64249 -157.143 TD 30 -1 9 292
1992027N05206 1992 6 EP CP EKEKA 1992-01-28 12:00:00 TS 4.84286 202.307 30 hurdat_epa main 1593 1574 O_____________ hurdat_epa CP011992 4.80000 -157.500 TD 30 -1 8 298
1992027N05206 1992 6 EP CP EKEKA 1992-01-28 15:00:00 TS 5.04685 201.980 main 1576 1557 P_____________ CP011992 4.94252 -157.880 TD 32 -1 7 306
1992027N05206 1992 6 EP CP EKEKA 1992-01-28 18:00:00 TS 5.22500 201.775 35 hurdat_epa main 1557 1548 O_____________ hurdat_epa CP011992 5.10000 -158.200 TS 35 0 4 315
1992027N05206 1992 6 EP CP EKEKA 1992-01-28 21:00:00 TS 5.34684 201.672 main 1548 1537 P_____________ CP011992 5.30745 -158.365 TS 37 0 3 315
1992027N05206 1992 6 EP CP EKEKA 1992-01-29 00:00:00 TS 5.45000 201.550 40 hurdat_epa main 1528 1522 O_____________ hurdat_epa CP011992 5.50000 -158.500 TS 40 0 4 306
1992027N05206 1992 6 EP CP EKEKA 1992-01-29 03:00:00 TS 5.57668 201.348 main 1524 1518 P_____________ CP011992 5.61476 -158.638 TS 42 0 7 292
1992027N05206 1992 6 EP CP EKEKA 1992-01-29 06:00:00 TS 5.70000 200.925 45 hurdat_epa main 1523 1520 O_____________ hurdat_epa CP011992 5.70000 -159.000 TS 45 0 12 281
1992027N05206 1992 6 EP CP EKEKA 1992-01-29 09:00:00 TS 5.81147 200.148 main 1535 1535 P_____________ CP011992 5.80774 -159.810 TS 47 0 17 277
1992027N05206 1992 6 EP CP EKEKA 1992-01-29 12:00:00 TS 5.90000 199.225 50 hurdat_epa main 1557 1557 O_____________ hurdat_epa CP011992 5.90000 -160.800 TS 50 0 18 275
1992027N05206 1992 6 EP CP EKEKA 1992-01-29 15:00:00 TS 5.96499 198.378 main 1579 1579 P_____________ CP011992 5.96504 -161.710 TS 52 0 16 274
1992027N05206 1992 6 EP CP EKEKA 1992-01-29 18:00:00 TS 6.00000 197.625 55 hurdat_epa main 1616 1616 O_____________ hurdat_epa CP011992 6.00000 -162.500 TS 55 0 13 271
1992027N05206 1992 6 EP CP EKEKA 1992-01-29 21:00:00 TS 5.99610 197.035 main 1646 1646 P_____________ CP011992 5.99983 -163.075 TS 60 0 11 270
1992027N05206 1992 6 EP CP EKEKA 1992-01-30 00:00:00 TS 6.00000 196.550 65 hurdat_epa main 1668 1673 O_____________ hurdat_epa CP011992 6.00000 -163.500 HU 65 1 10 275
1992027N05206 1992 6 EP CP EKEKA 1992-01-30 03:00:00 TS 6.07502 196.048 main 1692 1692 P_____________ CP011992 6.04995 -163.887 HU 65 1 9 280
1992027N05206 1992 6 EP CP EKEKA 1992-01-30 06:00:00 TS 6.15000 195.650 65 hurdat_epa main 1706 1706 O_____________ hurdat_epa CP011992 6.10000 -164.200 HU 65 1 6 277
1992027N05206 1992 6 EP CP EKEKA 1992-01-30 09:00:00 TS 6.15177 195.451 main 1712 1712 P_____________ CP011992 6.09996 -164.465 HU 67 1 4 270
1992027N05206 1992 6 EP CP EKEKA 1992-01-30 12:00:00 TS 6.15000 195.275 70 hurdat_epa main 1724 1724 O_____________ hurdat_epa CP011992 6.10000 -164.700 HU 70 1 5 276
1992027N05206 1992 6 EP CP EKEKA 1992-01-30 15:00:00 TS 6.20315 194.945 main 1749 1749 P_____________ CP011992 6.14242 -164.913 HU 72 1 8 280
1992027N05206 1992 6 EP CP EKEKA 1992-01-30 18:00:00 TS 6.27500 194.525 75 hurdat_epa main 1765 1765 O_____________ hurdat_epa CP011992 6.20000 -165.200 HU 75 1 9 278
1992027N05206 1992 6 EP CP EKEKA 1992-01-30 21:00:00 TS 6.33185 194.058 main 1791 1791 P_____________ CP011992 6.24254 -165.663 HU 75 1 10 277
1992027N05206 1992 6 EP CP EKEKA 1992-01-31 00:00:00 TS 6.40000 193.550 75 hurdat_epa main 1817 1824 O_____________ hurdat_epa CP011992 6.30000 -166.200 HU 75 1 10 278
1992027N05206 1992 6 EP CP EKEKA 1992-01-31 03:00:00 TS 6.47744 193.049 main 1850 1850 P_____________ CP011992 6.37743 -166.693 HU 75 1 10 281
1992027N05206 1992 6 EP CP EKEKA 1992-01-31 06:00:00 TS 6.60000 192.525 75 hurdat_epa main 1878 1878 O_____________ hurdat_epa CP011992 6.50000 -167.200 HU 75 1 11 287
1992027N05206 1992 6 EP CP EKEKA 1992-01-31 09:00:00 TS 6.79935 191.959 main 1899 1899 P_____________ CP011992 6.67744 -167.735 HU 75 1 12 291
1992027N05206 1992 6 EP CP EKEKA 1992-01-31 12:00:00 TS 7.02500 191.400 75 hurdat_epa main 1926 1921 O_____________ hurdat_epa CP011992 6.90000 -168.300 HU 75 1 11 291
1992027N05206 1992 6 EP CP EKEKA 1992-01-31 15:00:00 TS 7.18418 190.953 main 1928 1928 P_____________ CP011992 7.12732 -168.863 HU 80 1 10 291
1992027N05206 1992 6 EP CP EKEKA 1992-01-31 18:00:00 TS 7.40000 190.425 85 hurdat_epa main 1942 1939 O_____________ hurdat_epa CP011992 7.40000 -169.500 HU 85 2 15 294
1992027N05206 1992 6 EP CP EKEKA 1992-01-31 21:00:00 TS 7.81175 189.560 main 1953 1950 P_____________ CP011992 7.76528 -170.330 HU 87 2 18 296
1992027N05206 1992 6 EP CP EKEKA 1992-02-01 00:00:00 TS 8.20000 188.750 90 hurdat_epa main 1968 1973 O_____________ hurdat_epa CP011992 8.10000 -171.100 HU 90 2 13 295
1992027N05206 1992 6 EP CP EKEKA 1992-02-01 03:00:00 TS 8.34590 188.395 main 1986 1977 P_____________ CP011992 8.27219 -171.553 HU 90 2 6 291
1992027N05206 1992 6 EP CP EKEKA 1992-02-01 06:00:00 TS 8.42500 188.150 90 hurdat_epa main 1998 1989 O_____________ hurdat_epa CP011992 8.40000 -171.900 HU 90 2 8 289
1992027N05206 1992 6 EP CP EKEKA 1992-02-01 09:00:00 TS 8.59640 187.666 main 2009 2009 P_____________ CP011992 8.60756 -172.372 HU 90 2 10 290
1992027N05206 1992 6 EP CP EKEKA 1992-02-01 12:00:00 TS 8.77500 187.200 90 hurdat_epa main 2028 2028 O_____________ hurdat_epa CP011992 8.80000 -172.800 HU 90 2 8 294
1992027N05206 1992 6 EP CP EKEKA 1992-02-01 15:00:00 TS 8.92741 186.925 main 2042 2034 P_____________ CP011992 8.91492 -173.088 HU 90 2 5 300
1992027N05206 1992 6 EP CP EKEKA 1992-02-01 18:00:00 TS 9.05000 186.725 90 hurdat_epa main 2041 2041 O_____________ hurdat_epa CP011992 9.00000 -173.300 HU 90 2 5 297
1992027N05206 1992 6 EP CP EKEKA 1992-02-01 21:00:00 TS 9.13811 186.500 main 2056 2048 P_____________ CP011992 9.10746 -173.500 HU 95 2 5 289
1992027N05206 1992 6 EP CP EKEKA 1992-02-02 00:00:00 TS 9.20000 186.275 100 hurdat_epa main 2063 2063 O_____________ hurdat_epa CP011992 9.20000 -173.700 HU 100 3 5 283
1992027N05206 1992 6 EP CP EKEKA 1992-02-02 03:00:00 TS 9.24437 186.037 main 2086 2078 P_____________ CP011992 9.25001 -173.950 HU 100 3 5 282
1992027N05206 1992 6 EP CP EKEKA 1992-02-02 06:00:00 TS 9.30000 185.800 100 hurdat_epa main 2094 2094 O_____________ hurdat_epa CP011992 9.30000 -174.200 HU 100 3 5 290
1992027N05206 1992 6 EP CP EKEKA 1992-02-02 09:00:00 TS 9.41436 185.573 main 2102 2102 P_____________ CP011992 9.39996 -174.400 HU 95 2 5 297
1992027N05206 1992 6 EP CP EKEKA 1992-02-02 12:00:00 TS 9.52500 185.350 90 hurdat_epa main 2110 2110 O_____________ hurdat_epa CP011992 9.50000 -174.600 HU 90 2 5 291
1992027N05206 1992 6 EP CP EKEKA 1992-02-02 15:00:00 TS 9.58121 185.138 main 2126 2126 P_____________ CP011992 9.56498 -174.835 HU 90 2 5 280
1992027N05206 1992 6 EP CP EKEKA 1992-02-02 18:00:00 TS 9.60000 184.900 90 hurdat_epa main 2143 2143 O_____________ hurdat_epa CP011992 9.60000 -175.100 HU 90 2 5 271
1992027N05206 1992 6 EP CP EKEKA 1992-02-02 21:00:00 TS 9.58747 184.612 main 2167 2167 P_____________ CP011992 9.59997 -175.385 HU 85 2 6 268
1992027N05206 1992 6 EP CP EKEKA 1992-02-03 00:00:00 TS 9.57500 184.275 80 hurdat_epa main 2192 2192 O_____________ hurdat_epa CP011992 9.60000 -175.700 HU 80 1 6 273
1992027N05206 1992 6 EP CP EKEKA 1992-02-03 03:00:00 TS 9.62161 183.957 main 2217 2217 P_____________ CP011992 9.66469 -175.975 HU 65 1 8 276
1992027N05206 1992 6 EP CP EKEKA 1992-02-03 06:00:00 TS 9.65000 183.500 50 hurdat_epa main 2251 2259 O_____________ hurdat_epa CP011992 9.70000 -176.400 TS 50 0 11 268
1992027N05206 1992 6 EP CP EKEKA 1992-02-03 09:00:00 TS 9.58805 182.813 main 2318 2318 P_____________ CP011992 9.61496 -177.103 TS 45 0 16 263
1992027N05206 1992 6 EP CP EKEKA 1992-02-03 12:00:00 TS 9.46875 181.887 40 hurdat_epa main 2402 2402 OOO___________ hurdat_epa CP011992 9.50000 -178.000 TS 40 0 9.50000 181.400 7 50 985 0 9 100 100 0 9.00000 181.400 2 38 990 19 266
1992027N05206 1992 6 EP CP EKEKA 1992-02-03 15:00:00 TS 9.44308 180.901 main 2497 2497 PPP___________ CP011992 9.45008 -178.985 TS 40 0 9.52539 -179.402 7 47 987 0 9 90 90 9.32530 -179.394 2 38 990 19 269
1992027N05206 1992 6 WP MM EKEKA 1992-02-03 18:00:00 TS 9.43529 179.918 45 990 tokyo main 2585 2585 OOOO__________ hurdat_epa CP011992 9.40000 -180.000 TS 40 0 9.50000 179.800 3 45 990 0 9 80 80 0 9.50000 179.800 2 38 990 9.40000 179.800 TD 30 995 18 267
1992027N05206 1992 6 WP MM EKEKA 1992-02-03 21:00:00 TS 9.35824 179.033 main 2666 2666 PPPP__________ CP011992 9.29971 179.077 TS 40 0 9.39977 179.007 3 45 990 0 9 80 80 9.43742 178.985 2 38 990 9.35090 179.000 TD 30 995 17 264
1992027N05206 1992 6 WP MM EKEKA 1992-02-04 00:00:00 TS 9.25790 178.200 45 990 tokyo main 2741 2704 OOOO__________ hurdat_epa CP011992 9.20000 178.200 TS 40 0 9.30000 178.200 3 45 990 0 9 80 80 0 9.30000 178.200 2 38 990 9.30000 178.200 TD 30 995 16 265
1992027N05206 1992 6 WP MM EKEKA 1992-02-04 03:00:00 TS 9.21423 177.408 main 2697 2637 PPPP__________ CP011992 9.12725 177.342 TS 37 0 9.29230 177.365 3 45 990 0 9 80 80 9.29191 177.538 2 38 990 9.25068 177.500 TD 27 997 16 268
1992027N05206 1992 6 WP MM EKEKA 1992-02-04 06:00:00 TS 9.20000 176.588 45 990 tokyo main 2637 2572 OOOO__________ hurdat_epa CP011992 9.10000 176.500 TS 35 0 9.30000 176.500 3 45 990 0 9 80 80 0 9.30000 176.800 2 38 990 9.20000 176.800 TD 25 1000 17 269
1992027N05206 1992 6 WP MM EKEKA 1992-02-04 09:00:00 TS 9.17746 175.668 main 2572 2509 PPP___________ CP011992 9.12725 175.658 TS 32 -1 9.22744 175.592 3 42 992 0 9 80 80 9.22790 175.765 2 38 990 TD 18 270
1992027N05206 1992 6 WP MM EKEKA 1992-02-04 12:00:00 TS 9.20000 174.750 40 994 tokyo main 2509 2464 OOO___________ hurdat_epa CP011992 9.20000 174.800 TD 30 -1 9.20000 174.700 3 40 994 0 9 80 80 0 9.20000 174.700 2 38 990 17 274
1992027N05206 1992 6 WP MM EKEKA 1992-02-04 15:00:00 TS 9.29089 173.904 main 2458 2415 PPP___________ CP011992 9.26983 173.907 TD 27 -1 9.30444 173.922 3 998 0 9 9.31944 173.878 2 33 994 17 278
1992027N05206 1992 6 WP MM EKEKA 1992-02-04 18:00:00 TS 9.45000 173.050 1002 tokyo main 2425 2379 OOO___________ hurdat_epa CP011992 9.40000 173.000 TD 25 -1 9.50000 173.100 2 1002 0 0 0 9.50000 173.100 1 29 998 18 282
1992027N05206 1992 6 WP MM EKEKA 1992-02-04 21:00:00 TS 9.66186 172.109 main 2383 2352 PPP___________ CP011992 9.63483 172.093 TD 25 -1 9.73537 172.043 2 1003 0 0 9.64244 172.207 1 29 998 19 284
1992027N05206 1992 6 WP MM EKEKA 1992-02-05 00:00:00 TS 9.90000 171.175 1004 tokyo main 2352 2329 OOO___________ hurdat_epa CP011992 9.90000 171.200 TD 25 -1 10.0000 171.000 2 1004 0 0 0 9.80000 171.300 1 29 998 18 285
1992027N05206 1992 6 WP MM EKEKA 1992-02-05 03:00:00 TS 10.1235 170.322 main 2324 2310 PPP___________ CP011992 10.1148 170.327 TD 25 -1 10.2792 170.235 2 1006 0 0 9.98503 170.398 1 29 999 17 285
1992027N05206 1992 6 WP MM EKEKA 1992-02-05 06:00:00 TS 10.3250 169.525 1008 tokyo main 2306 2289 OOO___________ hurdat_epa CP011992 10.3000 169.500 TD 25 -1 10.5000 169.500 2 1008 0 0 0 10.2000 169.600 1 29 1000 16 283
1992027N05206 1992 6 WP MM EKEKA 1992-02-05 09:00:00 TS 10.4786 168.749 main 2291 2277 PPP___________ CP011992 10.4573 168.727 TD 25 -1 10.5655 168.505 2 1008 0 0 10.4345 169.035 1 29 1002 15 281
1992027N05206 1992 6 WP MM EKEKA 1992-02-05 12:00:00 TS 10.6250 168.025 1008 tokyo main 2273 2269 OOO___________ hurdat_epa CP011992 10.6000 168.000 TD 25 -1 10.6000 167.600 2 1008 0 0 0 10.7000 168.500 1 29 1004 14 285
1992027N05206 1992 6 WP MM EKEKA 1992-02-05 15:00:00 TS 10.8310 167.364 main 2272 2267 PPP___________ CP011992 10.7648 167.285 TD 25 -1 10.7494 167.098 2 1008 0 0 11.0450 167.788 1 29 1004 13 286
1992027N05206 1992 6 WP MM EKEKA 1992-02-05 18:00:00 TS 11.0000 166.725 1008 tokyo main 2260 2232 OOO___________ hurdat_epa CP011992 10.9000 166.600 TD 25 -1 10.9000 166.700 2 1008 0 0 0 11.3000 167.000 1 29 1004 13 280
1992027N05206 1992 6 WP MM EKEKA 1992-02-05 21:00:00 TS 11.0700 166.033 main 2226 2184 PPP___________ CP011992 10.9874 165.928 TD 25 -1 10.9875 166.115 2 1008 0 0 11.3177 166.162 1 29 1004 13 272
1992027N05206 1992 6 WP MM EKEKA 1992-02-06 00:00:00 TS 11.0500 165.375 1008 tokyo main 2184 2134 OOO___________ hurdat_epa CP011992 11.0000 165.300 TD 25 -1 11.0000 165.500 2 1008 0 0 0 11.2000 165.400 1 29 1004 12 265
1992027N05206 1992 6 WP MM EKEKA 1992-02-06 03:00:00 TS 10.9654 164.811 main 2134 2082 PPP___________ CP011992 10.9299 164.727 TD 25 -1 10.9299 164.927 2 1008 0 0 11.0721 164.863 1 29 1005 11 258
1992027N05206 1992 6 WP MM EKEKA 1992-02-06 06:00:00 TS 10.8250 164.300 1008 tokyo main 2082 2040 OOO___________ hurdat_epa CP011992 10.8000 164.200 TD 25 -1 10.8000 164.400 2 1008 0 0 0 10.9000 164.400 1 29 1006 10 254
1992027N05206 1992 6 WP MM EKEKA 1992-02-06 09:00:00 TS 10.6717 163.800 main 2040 1989 PPP___________ CP011992 10.6573 163.700 TD 25 -1 10.6723 163.943 2 1008 0 0 10.6999 163.857 1 29 1006 10 252
1992027N05206 1992 6 WP MM EKEKA 1992-02-06 12:00:00 TS 10.5000 163.300 1008 tokyo main 1989 1937 OOO___________ hurdat_epa CP011992 10.5000 163.200 TD 25 -1 10.5000 163.500 2 1008 0 0 0 10.5000 163.300 1 29 1006 11 251
1992027N05206 1992 6 WP MM EKEKA 1992-02-06 15:00:00 TS 10.3324 162.783 main 1937 1895 PPP___________ CP011992 10.3574 162.673 TD 25 -1 10.2650 163.007 2 1008 0 0 10.3497 162.780 1 29 1006 11 252
1992027N05206 1992 6 WP MM EKEKA 1992-02-06 18:00:00 TS 10.1500 162.225 1008 tokyo main 1888 1828 OOO___________ hurdat_epa CP011992 10.2000 162.100 TD 25 -1 10.0000 162.500 2 1008 0 0 0 10.2000 162.200 1 29 1006 12 251
1992027N05206 1992 6 WP MM EKEKA 1992-02-06 21:00:00 TS 9.93175 161.619 main 1822 1765 PPP___________ CP011992 9.99986 161.480 TD 25 -1 9.72714 162.053 2 1008 0 0 10.0001 161.465 1 29 1006 13 251
1992027N05206 1992 6 WP MM EKEKA 1992-02-07 00:00:00 TS 9.72500 160.950 1008 tokyo main 1765 1713 OOO___________ hurdat_epa CP011992 9.80000 160.800 TD 25 -1 9.50000 161.500 2 1008 0 0 0 9.80000 160.700 1 29 1006 14 256
1992027N05206 1992 6 WP MM EKEKA 1992-02-07 03:00:00 TS 9.59112 160.226 main 1707 1658 PPP___________ CP011992 9.65738 160.073 TD 25 -1 9.39988 160.733 2 1008 0 0 9.64983 160.028 1 26 1007 15 259
1992027N05206 1992 6 WP MM EKEKA 1992-02-07 06:00:00 TS 9.45000 159.450 1008 tokyo main 1658 1583 OOO___________ hurdat_epa CP011992 9.50000 159.300 TD 25 -1 9.30000 159.800 2 1008 0 0 0 9.50000 159.400 1 23 1008 16 257
1992027N05206 1992 6 WP MM EKEKA 1992-02-07 09:00:00 TS 9.22733 158.658 main 1583 1520 PPP___________ CP011992 9.26482 158.515 TD 22 -1 9.06512 158.757 2 1008 0 0 9.31454 158.845 1 23 1008 17 254
1992027N05206 1992 6 WP MM EKEKA 1992-02-07 12:00:00 TS 8.97500 157.825 1008 tokyo main 1515 1455 OOO___________ hurdat_epa CP011992 9.00000 157.700 TD 20 -1 8.80000 157.700 2 1008 0 0 0 9.10000 158.200 1 23 1008 17 254
1992027N05206 1992 6 WP MM EKEKA 1992-02-07 15:00:00 TS 8.74843 156.971 main 1445 1381 PPP___________ CP011992 8.74975 156.873 TD 20 -1 8.62207 156.785 2 1008 0 0 8.87214 157.355 1 23 1008 18 255
1992027N05206 1992 6 WP MM EKEKA 1992-02-07 18:00:00 TS 8.50000 156.050 1008 tokyo main 1381 1307 OOO___________ hurdat_epa CP011992 8.50000 156.000 TD 20 -1 8.40000 155.900 2 1008 0 0 0 8.60000 156.300 1 23 1008 20 254
1992027N05206 1992 6 WP MM EKEKA 1992-02-07 21:00:00 TS 8.20255 155.018 main 1303 1236 PPP___________ CP011992 8.25738 155.065 TD 20 -1 8.02988 154.950 2 1008 0 0 8.26556 154.992 1 23 1008 21 254
1992027N05206 1992 6 WP MM EKEKA 1992-02-08 00:00:00 TS 7.89333 153.973 1008 tokyo main 1236 1179 OOO___________ hurdat_epa CP011992 8.00000 154.100 TD 20 -1 7.60000 154.000 2 1008 0 0 0 7.90000 153.700 1 23 1008 21 252
1992027N05206 1992 6 WP MM EKEKA 1992-02-08 03:00:00 TS 7.57972 153.028 main 1177 1129 PPP___________ CP011992 7.69224 153.158 TD 20 -1 7.19029 153.087 2 1008 0 0 7.54939 152.740 1 23 1008 19 252
1992027N05206 1992 6 WP MM EKEKA 1992-02-08 06:00:00 TS 7.30000 152.125 1008 tokyo main 1128 1098 OOO___________ hurdat_epa CP011992 7.40000 152.200 TD 20 -1 6.80000 152.200 2 1008 0 0 0 7.20000 151.900 1 23 1008 19 256
1992027N05206 1992 6 WP MM EKEKA 1992-02-08 09:00:00 TS 7.10598 151.170 main 1098 1066 P_P___________ CP011992 7.16983 151.208 TD 20 -1 2 0 0 6.85054 151.020 1 23 1008 20 260
1992027N05206 1992 6 WP MM EKEKA 1992-02-08 12:00:00 TS 6.94444 150.189 main 1055 1030 O_O___________ hurdat_epa CP011992 7.00000 150.200 TD 20 -1 6.50000 150.100 1 23 1008 20 263
1992027N05206 1992 6 WP MM EKEKA 1992-02-08 15:00:00 TS 6.86979 149.200 main 1028 1002 P_____________ CP011992 6.86979 149.200 TD 17 -1 1 20 266
1992027N05206 1992 6 WP MM EKEKA 1992-02-08 18:00:00 TS 6.80000 148.200 main 1001 997 O_____________ hurdat_epa CP011992 6.80000 148.200 TD 15 -1 20 268
1992027N05206 1992 6 WP MM EKEKA 1992-02-08 21:00:00 TS 6.78541 147.200 main 997 997 P_____________ CP011992 6.78541 147.200 TD 15 -1 20 270
1992027N05206 1992 6 WP MM EKEKA 1992-02-09 00:00:00 TS 6.80000 146.200 main 998 O_____________ hurdat_epa CP011992 6.80000 146.200 TD 15 -1 20 271

IBTrACS Databaseについて

本データベースは、米国NOAAが公開する1842年以降の世界の熱帯低気圧のベストトラックデータアーカイブInternational Best Track Archive for Climate Stewardship (IBTrACS)を、ウェブで閲覧しやすい形式に変換したものです。

最終更新日:2021-10-08